sensor_id;sensor_type;location;lat;lon;timestamp;P1;P2;P0
46885;PMS5003;32622;48.202;11.326;2024-03-07T00:01:15;18;17;
46885;PMS5003;32622;48.202;11.326;2024-03-07T00:03:17;18;17;
46885;PMS5003;32622;48.202;11.326;2024-03-07T00:05:20;18;17;
46885;PMS5003;32622;48.202;11.326;2024-03-07T00:07:23;18;17;
46885;PMS5003;32622;48.202;11.326;2024-03-07T00:09:25;18;17;
46885;PMS5003;32622;48.202;11.326;2024-03-07T00:11:27;17;16;
46885;PMS5003;32622;48.202;11.326;2024-03-07T00:13:29;17;16;
46885;PMS5003;32622;48.202;11.326;2024-03-07T00:15:31;17;16;
46885;PMS5003;32622;48.202;11.326;2024-03-07T00:17:33;17;16;
46885;PMS5003;32622;48.202;11.326;2024-03-07T00:19:36;17;15;
46885;PMS5003;32622;48.202;11.326;2024-03-07T00:21:38;17;15;
46885;PMS5003;32622;48.202;11.326;2024-03-07T00:23:40;17;15;
46885;PMS5003;32622;48.202;11.326;2024-03-07T00:25:42;17;16;
46885;PMS5003;32622;48.202;11.326;2024-03-07T00:27:44;17;16;
46885;PMS5003;32622;48.202;11.326;2024-03-07T00:29:46;17;16;
46885;PMS5003;32622;48.202;11.326;2024-03-07T00:31:49;16;15;
46885;PMS5003;32622;48.202;11.326;2024-03-07T00:33:51;16;15;
46885;PMS5003;32622;48.202;11.326;2024-03-07T00:35:53;16;15;
46885;PMS5003;32622;48.202;11.326;2024-03-07T00:37:55;15;14;
46885;PMS5003;32622;48.202;11.326;2024-03-07T00:39:57;15;14;
46885;PMS5003;32622;48.202;11.326;2024-03-07T00:42:00;15;14;
46885;PMS5003;32622;48.202;11.326;2024-03-07T00:44:02;16;15;
46885;PMS5003;32622;48.202;11.326;2024-03-07T00:46:04;16;15;
46885;PMS5003;32622;48.202;11.326;2024-03-07T00:48:06;16;15;
46885;PMS5003;32622;48.202;11.326;2024-03-07T00:50:09;16;15;
46885;PMS5003;32622;48.202;11.326;2024-03-07T00:52:11;16;15;
46885;PMS5003;32622;48.202;11.326;2024-03-07T00:54:13;16;15;
46885;PMS5003;32622;48.202;11.326;2024-03-07T00:56:15;17;16;
46885;PMS5003;32622;48.202;11.326;2024-03-07T00:58:17;17;16;
46885;PMS5003;32622;48.202;11.326;2024-03-07T01:00:19;17;16;
46885;PMS5003;32622;48.202;11.326;2024-03-07T01:02:21;16;16;
46885;PMS5003;32622;48.202;11.326;2024-03-07T01:04:24;16;16;
46885;PMS5003;32622;48.202;11.326;2024-03-07T01:06:26;16;16;
46885;PMS5003;32622;48.202;11.326;2024-03-07T01:08:28;16;16;
46885;PMS5003;32622;48.202;11.326;2024-03-07T01:10:30;16;16;
46885;PMS5003;32622;48.202;11.326;2024-03-07T01:12:32;16;16;
46885;PMS5003;32622;48.202;11.326;2024-03-07T01:14:34;16;16;
46885;PMS5003;32622;48.202;11.326;2024-03-07T01:16:37;16;16;
46885;PMS5003;32622;48.202;11.326;2024-03-07T01:18:39;16;16;
46885;PMS5003;32622;48.202;11.326;2024-03-07T01:20:41;18;17;
46885;PMS5003;32622;48.202;11.326;2024-03-07T01:22:43;18;17;
46885;PMS5003;32622;48.202;11.326;2024-03-07T01:24:46;18;17;
46885;PMS5003;32622;48.202;11.326;2024-03-07T01:26:49;19;18;
46885;PMS5003;32622;48.202;11.326;2024-03-07T01:28:51;19;18;
46885;PMS5003;32622;48.202;11.326;2024-03-07T01:30:53;19;18;
46885;PMS5003;32622;48.202;11.326;2024-03-07T01:32:55;19;18;
46885;PMS5003;32622;48.202;11.326;2024-03-07T01:34:58;19;18;
46885;PMS5003;32622;48.202;11.326;2024-03-07T01:37:00;19;18;
46885;PMS5003;32622;48.202;11.326;2024-03-07T01:39:02;20;19;
46885;PMS5003;32622;48.202;11.326;2024-03-07T01:41:04;20;19;
46885;PMS5003;32622;48.202;11.326;2024-03-07T01:43:06;20;19;
46885;PMS5003;32622;48.202;11.326;2024-03-07T01:45:09;20;18;
46885;PMS5003;32622;48.202;11.326;2024-03-07T01:47:11;20;18;
46885;PMS5003;32622;48.202;11.326;2024-03-07T01:49:14;20;18;
46885;PMS5003;32622;48.202;11.326;2024-03-07T01:51:16;20;18;
46885;PMS5003;32622;48.202;11.326;2024-03-07T01:53:18;20;18;
46885;PMS5003;32622;48.202;11.326;2024-03-07T01:55:20;20;18;
46885;PMS5003;32622;48.202;11.326;2024-03-07T01:57:23;21;19;
46885;PMS5003;32622;48.202;11.326;2024-03-07T01:59:26;21;19;
46885;PMS5003;32622;48.202;11.326;2024-03-07T02:01:30;21;19;
46885;PMS5003;32622;48.202;11.326;2024-03-07T02:03:32;23;19;
46885;PMS5003;32622;48.202;11.326;2024-03-07T02:05:34;23;19;
46885;PMS5003;32622;48.202;11.326;2024-03-07T02:07:36;23;19;
46885;PMS5003;32622;48.202;11.326;2024-03-07T02:09:39;23;19;
46885;PMS5003;32622;48.202;11.326;2024-03-07T02:11:41;23;19;
46885;PMS5003;32622;48.202;11.326;2024-03-07T02:13:43;23;19;
46885;PMS5003;32622;48.202;11.326;2024-03-07T02:15:45;23;19;
46885;PMS5003;32622;48.202;11.326;2024-03-07T02:17:47;24;20;
46885;PMS5003;32622;48.202;11.326;2024-03-07T02:19:49;24;20;
46885;PMS5003;32622;48.202;11.326;2024-03-07T02:21:51;22;19;
46885;PMS5003;32622;48.202;11.326;2024-03-07T02:23:53;21;18;
46885;PMS5003;32622;48.202;11.326;2024-03-07T02:25:56;21;18;
46885;PMS5003;32622;48.202;11.326;2024-03-07T02:27:58;20;17;
46885;PMS5003;32622;48.202;11.326;2024-03-07T02:30:00;20;17;
46885;PMS5003;32622;48.202;11.326;2024-03-07T02:32:02;20;17;
46885;PMS5003;32622;48.202;11.326;2024-03-07T02:34:05;20;17;
46885;PMS5003;32622;48.202;11.326;2024-03-07T02:36:07;20;17;
46885;PMS5003;32622;48.202;11.326;2024-03-07T02:38:09;20;17;
46885;PMS5003;32622;48.202;11.326;2024-03-07T02:40:12;20;18;
46885;PMS5003;32622;48.202;11.326;2024-03-07T02:42:14;20;18;
46885;PMS5003;32622;48.202;11.326;2024-03-07T02:44:16;20;18;
46885;PMS5003;32622;48.202;11.326;2024-03-07T02:46:19;20;18;
46885;PMS5003;32622;48.202;11.326;2024-03-07T02:48:21;20;18;
46885;PMS5003;32622;48.202;11.326;2024-03-07T02:50:23;20;18;
46885;PMS5003;32622;48.202;11.326;2024-03-07T02:52:25;20;17;
46885;PMS5003;32622;48.202;11.326;2024-03-07T02:54:27;20;17;
46885;PMS5003;32622;48.202;11.326;2024-03-07T02:56:29;20;17;
46885;PMS5003;32622;48.202;11.326;2024-03-07T02:58:31;20;17;
46885;PMS5003;32622;48.202;11.326;2024-03-07T03:00:34;20;17;
46885;PMS5003;32622;48.202;11.326;2024-03-07T03:02:36;20;17;
46885;PMS5003;32622;48.202;11.326;2024-03-07T03:04:38;17;17;
46885;PMS5003;32622;48.202;11.326;2024-03-07T03:06:40;18;18;
46885;PMS5003;32622;48.202;11.326;2024-03-07T03:08:42;18;18;
46885;PMS5003;32622;48.202;11.326;2024-03-07T03:10:44;17;17;
46885;PMS5003;32622;48.202;11.326;2024-03-07T03:12:46;17;17;
46885;PMS5003;32622;48.202;11.326;2024-03-07T03:14:48;16;16;
46885;PMS5003;32622;48.202;11.326;2024-03-07T03:16:50;18;17;
46885;PMS5003;32622;48.202;11.326;2024-03-07T03:18:52;18;17;
46885;PMS5003;32622;48.202;11.326;2024-03-07T03:20:55;19;18;
46885;PMS5003;32622;48.202;11.326;2024-03-07T03:22:57;20;18;
46885;PMS5003;32622;48.202;11.326;2024-03-07T03:24:59;20;18;
46885;PMS5003;32622;48.202;11.326;2024-03-07T03:27:01;20;18;
46885;PMS5003;32622;48.202;11.326;2024-03-07T03:29:03;20;18;
46885;PMS5003;32622;48.202;11.326;2024-03-07T03:31:05;20;18;
46885;PMS5003;32622;48.202;11.326;2024-03-07T03:33:09;20;18;
46885;PMS5003;32622;48.202;11.326;2024-03-07T03:35:11;20;18;
46885;PMS5003;32622;48.202;11.326;2024-03-07T03:37:13;20;18;
46885;PMS5003;32622;48.202;11.326;2024-03-07T03:39:16;20;18;
46885;PMS5003;32622;48.202;11.326;2024-03-07T03:41:18;19;18;
46885;PMS5003;32622;48.202;11.326;2024-03-07T03:43:20;19;18;
46885;PMS5003;32622;48.202;11.326;2024-03-07T03:45:22;19;18;
46885;PMS5003;32622;48.202;11.326;2024-03-07T03:47:24;19;17;
46885;PMS5003;32622;48.202;11.326;2024-03-07T03:49:26;19;17;
46885;PMS5003;32622;48.202;11.326;2024-03-07T03:51:28;19;17;
46885;PMS5003;32622;48.202;11.326;2024-03-07T03:53:30;19;17;
46885;PMS5003;32622;48.202;11.326;2024-03-07T03:55:33;19;17;
46885;PMS5003;32622;48.202;11.326;2024-03-07T03:57:36;19;17;
46885;PMS5003;32622;48.202;11.326;2024-03-07T03:59:42;18;17;
46885;PMS5003;32622;48.202;11.326;2024-03-07T04:01:44;18;17;
46885;PMS5003;32622;48.202;11.326;2024-03-07T04:03:46;18;17;
46885;PMS5003;32622;48.202;11.326;2024-03-07T04:05:49;19;18;
46885;PMS5003;32622;48.202;11.326;2024-03-07T04:07:51;19;18;
46885;PMS5003;32622;48.202;11.326;2024-03-07T04:09:53;19;18;
46885;PMS5003;32622;48.202;11.326;2024-03-07T04:11:55;20;18;
46885;PMS5003;32622;48.202;11.326;2024-03-07T04:13:57;20;18;
46885;PMS5003;32622;48.202;11.326;2024-03-07T04:15:59;20;18;
46885;PMS5003;32622;48.202;11.326;2024-03-07T04:18:01;18;18;
46885;PMS5003;32622;48.202;11.326;2024-03-07T04:20:04;18;18;
46885;PMS5003;32622;48.202;11.326;2024-03-07T04:22:08;18;18;
46885;PMS5003;32622;48.202;11.326;2024-03-07T04:24:10;18;18;
46885;PMS5003;32622;48.202;11.326;2024-03-07T04:26:12;18;18;
46885;PMS5003;32622;48.202;11.326;2024-03-07T04:28:14;18;18;
46885;PMS5003;32622;48.202;11.326;2024-03-07T04:30:17;18;18;
46885;PMS5003;32622;48.202;11.326;2024-03-07T04:32:19;18;18;
46885;PMS5003;32622;48.202;11.326;2024-03-07T04:34:22;18;18;
46885;PMS5003;32622;48.202;11.326;2024-03-07T04:36:24;18;18;
46885;PMS5003;32622;48.202;11.326;2024-03-07T04:38:27;18;18;
46885;PMS5003;32622;48.202;11.326;2024-03-07T04:40:29;18;18;
46885;PMS5003;32622;48.202;11.326;2024-03-07T04:42:31;19;19;
46885;PMS5003;32622;48.202;11.326;2024-03-07T04:44:34;19;19;
46885;PMS5003;32622;48.202;11.326;2024-03-07T04:46:37;20;20;
46885;PMS5003;32622;48.202;11.326;2024-03-07T04:48:39;20;20;
46885;PMS5003;32622;48.202;11.326;2024-03-07T04:50:41;19;19;
46885;PMS5003;32622;48.202;11.326;2024-03-07T04:52:43;20;20;
46885;PMS5003;32622;48.202;11.326;2024-03-07T04:54:45;20;20;
46885;PMS5003;32622;48.202;11.326;2024-03-07T04:56:48;22;21;
46885;PMS5003;32622;48.202;11.326;2024-03-07T04:58:51;23;22;
46885;PMS5003;32622;48.202;11.326;2024-03-07T05:00:53;24;23;
46885;PMS5003;32622;48.202;11.326;2024-03-07T05:02:55;22;21;
46885;PMS5003;32622;48.202;11.326;2024-03-07T05:04:57;22;21;
46885;PMS5003;32622;48.202;11.326;2024-03-07T05:07:00;21;20;
46885;PMS5003;32622;48.202;11.326;2024-03-07T05:09:02;21;20;
46885;PMS5003;32622;48.202;11.326;2024-03-07T05:11:05;21;20;
46885;PMS5003;32622;48.202;11.326;2024-03-07T05:13:07;22;21;
46885;PMS5003;32622;48.202;11.326;2024-03-07T05:15:10;22;21;
46885;PMS5003;32622;48.202;11.326;2024-03-07T05:17:12;22;21;
46885;PMS5003;32622;48.202;11.326;2024-03-07T05:19:14;23;22;
46885;PMS5003;32622;48.202;11.326;2024-03-07T05:21:16;22;22;
46885;PMS5003;32622;48.202;11.326;2024-03-07T05:23:18;22;22;
46885;PMS5003;32622;48.202;11.326;2024-03-07T05:25:20;21;21;
46885;PMS5003;32622;48.202;11.326;2024-03-07T05:27:22;22;22;
46885;PMS5003;32622;48.202;11.326;2024-03-07T05:29:24;23;23;
46885;PMS5003;32622;48.202;11.326;2024-03-07T05:31:27;23;23;
46885;PMS5003;32622;48.202;11.326;2024-03-07T05:33:29;22;22;
46885;PMS5003;32622;48.202;11.326;2024-03-07T05:35:31;23;23;
46885;PMS5003;32622;48.202;11.326;2024-03-07T05:37:34;22;22;
46885;PMS5003;32622;48.202;11.326;2024-03-07T05:39:36;22;22;
46885;PMS5003;32622;48.202;11.326;2024-03-07T05:41:38;22;22;
46885;PMS5003;32622;48.202;11.326;2024-03-07T05:43:40;22;22;
46885;PMS5003;32622;48.202;11.326;2024-03-07T05:45:43;22;22;
46885;PMS5003;32622;48.202;11.326;2024-03-07T05:47:45;22;22;
46885;PMS5003;32622;48.202;11.326;2024-03-07T05:49:48;23;21;
46885;PMS5003;32622;48.202;11.326;2024-03-07T05:51:50;23;21;
46885;PMS5003;32622;48.202;11.326;2024-03-07T05:53:52;23;21;
46885;PMS5003;32622;48.202;11.326;2024-03-07T05:55:54;24;22;
46885;PMS5003;32622;48.202;11.326;2024-03-07T05:57:56;24;22;
46885;PMS5003;32622;48.202;11.326;2024-03-07T05:59:58;24;22;
46885;PMS5003;32622;48.202;11.326;2024-03-07T06:02:00;24;22;
46885;PMS5003;32622;48.202;11.326;2024-03-07T06:04:03;24;22;
46885;PMS5003;32622;48.202;11.326;2024-03-07T06:06:07;24;22;
46885;PMS5003;32622;48.202;11.326;2024-03-07T06:08:09;23;21;
46885;PMS5003;32622;48.202;11.326;2024-03-07T06:10:11;23;21;
46885;PMS5003;32622;48.202;11.326;2024-03-07T06:12:13;23;21;
46885;PMS5003;32622;48.202;11.326;2024-03-07T06:14:15;24;22;
46885;PMS5003;32622;48.202;11.326;2024-03-07T06:16:17;24;22;
46885;PMS5003;32622;48.202;11.326;2024-03-07T06:18:19;24;22;
46885;PMS5003;32622;48.202;11.326;2024-03-07T06:20:22;24;22;
46885;PMS5003;32622;48.202;11.326;2024-03-07T06:22:24;24;22;
46885;PMS5003;32622;48.202;11.326;2024-03-07T06:24:26;24;22;
46885;PMS5003;32622;48.202;11.326;2024-03-07T06:26:29;24;22;
46885;PMS5003;32622;48.202;11.326;2024-03-07T06:28:31;24;22;
46885;PMS5003;32622;48.202;11.326;2024-03-07T06:30:33;24;22;
46885;PMS5003;32622;48.202;11.326;2024-03-07T06:32:36;23;21;
46885;PMS5003;32622;48.202;11.326;2024-03-07T06:34:38;23;21;
46885;PMS5003;32622;48.202;11.326;2024-03-07T06:36:40;23;21;
46885;PMS5003;32622;48.202;11.326;2024-03-07T06:38:42;23;21;
46885;PMS5003;32622;48.202;11.326;2024-03-07T06:40:44;23;21;
46885;PMS5003;32622;48.202;11.326;2024-03-07T06:42:46;23;21;
46885;PMS5003;32622;48.202;11.326;2024-03-07T06:44:48;23;21;
46885;PMS5003;32622;48.202;11.326;2024-03-07T06:46:51;23;21;
46885;PMS5003;32622;48.202;11.326;2024-03-07T06:48:53;23;21;
46885;PMS5003;32622;48.202;11.326;2024-03-07T06:50:55;22;21;
46885;PMS5003;32622;48.202;11.326;2024-03-07T06:52:57;22;21;
46885;PMS5003;32622;48.202;11.326;2024-03-07T06:54:59;22;21;
46885;PMS5003;32622;48.202;11.326;2024-03-07T06:57:01;21;20;
46885;PMS5003;32622;48.202;11.326;2024-03-07T06:59:04;21;20;
46885;PMS5003;32622;48.202;11.326;2024-03-07T07:01:06;21;20;
46885;PMS5003;32622;48.202;11.326;2024-03-07T07:03:08;22;21;
46885;PMS5003;32622;48.202;11.326;2024-03-07T07:05:10;22;21;
46885;PMS5003;32622;48.202;11.326;2024-03-07T07:07:12;22;21;
46885;PMS5003;32622;48.202;11.326;2024-03-07T07:09:15;21;20;
46885;PMS5003;32622;48.202;11.326;2024-03-07T07:11:17;20;19;
46885;PMS5003;32622;48.202;11.326;2024-03-07T07:13:19;20;19;
46885;PMS5003;32622;48.202;11.326;2024-03-07T07:15:21;20;19;
46885;PMS5003;32622;48.202;11.326;2024-03-07T07:17:23;21;20;
46885;PMS5003;32622;48.202;11.326;2024-03-07T07:19:25;21;20;
46885;PMS5003;32622;48.202;11.326;2024-03-07T07:21:28;22;21;
46885;PMS5003;32622;48.202;11.326;2024-03-07T07:23:30;22;21;
46885;PMS5003;32622;48.202;11.326;2024-03-07T07:25:32;22;21;
46885;PMS5003;32622;48.202;11.326;2024-03-07T07:27:35;22;21;
46885;PMS5003;32622;48.202;11.326;2024-03-07T07:29:37;22;21;
46885;PMS5003;32622;48.202;11.326;2024-03-07T07:31:39;22;21;
46885;PMS5003;32622;48.202;11.326;2024-03-07T07:33:41;23;22;
46885;PMS5003;32622;48.202;11.326;2024-03-07T07:35:43;23;22;
46885;PMS5003;32622;48.202;11.326;2024-03-07T07:37:46;23;22;
46885;PMS5003;32622;48.202;11.326;2024-03-07T07:39:49;23;22;
46885;PMS5003;32622;48.202;11.326;2024-03-07T07:41:51;23;22;
46885;PMS5003;32622;48.202;11.326;2024-03-07T07:43:53;23;22;
46885;PMS5003;32622;48.202;11.326;2024-03-07T07:45:55;22;21;
46885;PMS5003;32622;48.202;11.326;2024-03-07T07:47:57;22;21;
46885;PMS5003;32622;48.202;11.326;2024-03-07T07:49:59;22;21;
46885;PMS5003;32622;48.202;11.326;2024-03-07T07:52:01;22;21;
46885;PMS5003;32622;48.202;11.326;2024-03-07T07:54:04;22;21;
46885;PMS5003;32622;48.202;11.326;2024-03-07T07:56:06;22;21;
46885;PMS5003;32622;48.202;11.326;2024-03-07T07:58:09;22;22;
46885;PMS5003;32622;48.202;11.326;2024-03-07T08:00:12;22;22;
46885;PMS5003;32622;48.202;11.326;2024-03-07T08:02:15;22;22;
46885;PMS5003;32622;48.202;11.326;2024-03-07T08:04:17;22;22;
46885;PMS5003;32622;48.202;11.326;2024-03-07T08:06:20;22;22;
46885;PMS5003;32622;48.202;11.326;2024-03-07T08:08:22;22;22;
46885;PMS5003;32622;48.202;11.326;2024-03-07T08:10:25;22;22;
46885;PMS5003;32622;48.202;11.326;2024-03-07T08:12:29;22;22;
46885;PMS5003;32622;48.202;11.326;2024-03-07T08:14:31;22;22;
46885;PMS5003;32622;48.202;11.326;2024-03-07T08:16:33;21;21;
46885;PMS5003;32622;48.202;11.326;2024-03-07T08:18:35;21;21;
46885;PMS5003;32622;48.202;11.326;2024-03-07T08:20:37;21;21;
46885;PMS5003;32622;48.202;11.326;2024-03-07T08:22:40;20;20;
46885;PMS5003;32622;48.202;11.326;2024-03-07T08:24:43;20;20;
46885;PMS5003;32622;48.202;11.326;2024-03-07T08:26:45;20;20;
46885;PMS5003;32622;48.202;11.326;2024-03-07T08:28:47;21;20;
46885;PMS5003;32622;48.202;11.326;2024-03-07T08:30:49;21;20;
46885;PMS5003;32622;48.202;11.326;2024-03-07T08:32:52;21;20;
46885;PMS5003;32622;48.202;11.326;2024-03-07T08:34:55;21;20;
46885;PMS5003;32622;48.202;11.326;2024-03-07T08:36:57;21;20;
46885;PMS5003;32622;48.202;11.326;2024-03-07T08:38:59;21;20;
46885;PMS5003;32622;48.202;11.326;2024-03-07T08:41:01;20;19;
46885;PMS5003;32622;48.202;11.326;2024-03-07T08:43:03;20;19;
46885;PMS5003;32622;48.202;11.326;2024-03-07T08:45:06;20;19;
46885;PMS5003;32622;48.202;11.326;2024-03-07T08:47:09;20;18;
46885;PMS5003;32622;48.202;11.326;2024-03-07T08:49:11;21;19;
46885;PMS5003;32622;48.202;11.326;2024-03-07T08:51:15;21;19;
46885;PMS5003;32622;48.202;11.326;2024-03-07T08:53:17;21;19;
46885;PMS5003;32622;48.202;11.326;2024-03-07T08:55:21;21;19;
46885;PMS5003;32622;48.202;11.326;2024-03-07T08:57:25;21;19;
46885;PMS5003;32622;48.202;11.326;2024-03-07T08:59:27;20;19;
46885;PMS5003;32622;48.202;11.326;2024-03-07T09:01:29;20;19;
46885;PMS5003;32622;48.202;11.326;2024-03-07T09:03:31;19;18;
46885;PMS5003;32622;48.202;11.326;2024-03-07T09:05:34;18;17;
46885;PMS5003;32622;48.202;11.326;2024-03-07T09:07:36;18;17;
46885;PMS5003;32622;48.202;11.326;2024-03-07T09:09:38;18;17;
46885;PMS5003;32622;48.202;11.326;2024-03-07T09:11:40;18;17;
46885;PMS5003;32622;48.202;11.326;2024-03-07T09:13:42;18;17;
46885;PMS5003;32622;48.202;11.326;2024-03-07T09:15:44;18;17;
46885;PMS5003;32622;48.202;11.326;2024-03-07T09:17:46;19;17;
46885;PMS5003;32622;48.202;11.326;2024-03-07T09:19:48;19;17;
46885;PMS5003;32622;48.202;11.326;2024-03-07T09:21:51;19;17;
46885;PMS5003;32622;48.202;11.326;2024-03-07T09:23:53;19;18;
46885;PMS5003;32622;48.202;11.326;2024-03-07T09:25:55;19;18;
46885;PMS5003;32622;48.202;11.326;2024-03-07T09:27:58;19;18;
46885;PMS5003;32622;48.202;11.326;2024-03-07T09:30:00;18;18;
46885;PMS5003;32622;48.202;11.326;2024-03-07T09:32:02;19;19;
46885;PMS5003;32622;48.202;11.326;2024-03-07T09:34:05;19;19;
46885;PMS5003;32622;48.202;11.326;2024-03-07T09:36:07;18;18;
46885;PMS5003;32622;48.202;11.326;2024-03-07T09:38:09;17;17;
46885;PMS5003;32622;48.202;11.326;2024-03-07T09:40:12;17;17;
46885;PMS5003;32622;48.202;11.326;2024-03-07T09:42:14;17;17;
46885;PMS5003;32622;48.202;11.326;2024-03-07T09:44:19;17;17;
46885;PMS5003;32622;48.202;11.326;2024-03-07T09:46:24;17;17;
46885;PMS5003;32622;48.202;11.326;2024-03-07T09:48:27;18;18;
46885;PMS5003;32622;48.202;11.326;2024-03-07T09:50:29;18;18;
46885;PMS5003;32622;48.202;11.326;2024-03-07T09:52:32;18;18;
46885;PMS5003;32622;48.202;11.326;2024-03-07T09:54:34;17;17;
46885;PMS5003;32622;48.202;11.326;2024-03-07T09:56:36;17;17;
46885;PMS5003;32622;48.202;11.326;2024-03-07T09:58:39;17;17;
46885;PMS5003;32622;48.202;11.326;2024-03-07T10:00:44;18;17;
46885;PMS5003;32622;48.202;11.326;2024-03-07T10:02:49;18;17;
46885;PMS5003;32622;48.202;11.326;2024-03-07T10:04:55;18;17;
46885;PMS5003;32622;48.202;11.326;2024-03-07T10:06:58;17;16;
46885;PMS5003;32622;48.202;11.326;2024-03-07T10:09:00;17;16;
46885;PMS5003;32622;48.202;11.326;2024-03-07T10:11:03;17;16;
46885;PMS5003;32622;48.202;11.326;2024-03-07T10:13:05;18;16;
46885;PMS5003;32622;48.202;11.326;2024-03-07T10:15:07;18;16;
46885;PMS5003;32622;48.202;11.326;2024-03-07T10:17:10;18;16;
46885;PMS5003;32622;48.202;11.326;2024-03-07T10:19:12;18;16;
46885;PMS5003;32622;48.202;11.326;2024-03-07T10:21:14;19;17;
46885;PMS5003;32622;48.202;11.326;2024-03-07T10:23:18;19;17;
46885;PMS5003;32622;48.202;11.326;2024-03-07T10:25:20;18;16;
46885;PMS5003;32622;48.202;11.326;2024-03-07T10:27:23;17;15;
46885;PMS5003;32622;48.202;11.326;2024-03-07T10:29:27;17;15;
46885;PMS5003;32622;48.202;11.326;2024-03-07T10:31:30;17;14;
46885;PMS5003;32622;48.202;11.326;2024-03-07T10:33:33;17;14;
46885;PMS5003;32622;48.202;11.326;2024-03-07T10:35:36;17;14;
46885;PMS5003;32622;48.202;11.326;2024-03-07T10:37:38;17;15;
46885;PMS5003;32622;48.202;11.326;2024-03-07T10:39:40;17;15;
46885;PMS5003;32622;48.202;11.326;2024-03-07T10:41:44;17;15;
46885;PMS5003;32622;48.202;11.326;2024-03-07T10:43:47;19;16;
46885;PMS5003;32622;48.202;11.326;2024-03-07T10:45:55;19;16;
46885;PMS5003;32622;48.202;11.326;2024-03-07T10:48:00;19;16;
46885;PMS5003;32622;48.202;11.326;2024-03-07T10:50:12;19;15;
46885;PMS5003;32622;48.202;11.326;2024-03-07T10:52:23;19;15;
46885;PMS5003;32622;48.202;11.326;2024-03-07T10:54:34;19;15;
46885;PMS5003;32622;48.202;11.326;2024-03-07T10:56:46;19;16;
46885;PMS5003;32622;48.202;11.326;2024-03-07T10:58:58;19;16;
46885;PMS5003;32622;48.202;11.326;2024-03-07T11:01:06;19;16;
46885;PMS5003;32622;48.202;11.326;2024-03-07T11:03:11;18;16;
46885;PMS5003;32622;48.202;11.326;2024-03-07T11:05:14;18;16;
46885;PMS5003;32622;48.202;11.326;2024-03-07T11:07:17;18;16;
46885;PMS5003;32622;48.202;11.326;2024-03-07T11:09:20;18;15;
46885;PMS5003;32622;48.202;11.326;2024-03-07T11:11:23;19;16;
46885;PMS5003;32622;48.202;11.326;2024-03-07T11:13:27;19;16;
46885;PMS5003;32622;48.202;11.326;2024-03-07T11:15:31;19;17;
46885;PMS5003;32622;48.202;11.326;2024-03-07T11:17:34;19;17;
46885;PMS5003;32622;48.202;11.326;2024-03-07T11:19:37;19;17;
46885;PMS5003;32622;48.202;11.326;2024-03-07T11:21:40;20;17;
46885;PMS5003;32622;48.202;11.326;2024-03-07T11:23:44;20;17;
46885;PMS5003;32622;48.202;11.326;2024-03-07T11:25:47;19;16;
46885;PMS5003;32622;48.202;11.326;2024-03-07T11:27:51;18;16;
46885;PMS5003;32622;48.202;11.326;2024-03-07T11:29:53;18;16;
46885;PMS5003;32622;48.202;11.326;2024-03-07T11:31:56;18;16;
46885;PMS5003;32622;48.202;11.326;2024-03-07T11:34:13;19;16;
46885;PMS5003;32622;48.202;11.326;2024-03-07T11:36:41;19;16;
46885;PMS5003;32622;48.202;11.326;2024-03-07T11:38:44;19;16;
46885;PMS5003;32622;48.202;11.326;2024-03-07T11:40:50;19;16;
46885;PMS5003;32622;48.202;11.326;2024-03-07T11:42:53;20;17;
46885;PMS5003;32622;48.202;11.326;2024-03-07T11:44:56;20;17;
46885;PMS5003;32622;48.202;11.326;2024-03-07T11:46:59;21;18;
46885;PMS5003;32622;48.202;11.326;2024-03-07T11:49:01;21;17;
46885;PMS5003;32622;48.202;11.326;2024-03-07T11:51:03;21;18;
46885;PMS5003;32622;48.202;11.326;2024-03-07T11:53:06;23;20;
46885;PMS5003;32622;48.202;11.326;2024-03-07T11:55:09;22;20;
46885;PMS5003;32622;48.202;11.326;2024-03-07T11:57:11;22;20;
46885;PMS5003;32622;48.202;11.326;2024-03-07T11:59:14;22;20;
46885;PMS5003;32622;48.202;11.326;2024-03-07T12:01:16;22;20;
46885;PMS5003;32622;48.202;11.326;2024-03-07T12:03:19;22;20;
46885;PMS5003;32622;48.202;11.326;2024-03-07T12:05:22;21;20;
46885;PMS5003;32622;48.202;11.326;2024-03-07T12:07:24;21;20;
46885;PMS5003;32622;48.202;11.326;2024-03-07T12:09:26;21;20;
46885;PMS5003;32622;48.202;11.326;2024-03-07T12:11:29;21;19;
46885;PMS5003;32622;48.202;11.326;2024-03-07T12:13:31;21;19;
46885;PMS5003;32622;48.202;11.326;2024-03-07T12:15:33;21;19;
46885;PMS5003;32622;48.202;11.326;2024-03-07T12:17:36;21;20;
46885;PMS5003;32622;48.202;11.326;2024-03-07T12:19:38;21;20;
46885;PMS5003;32622;48.202;11.326;2024-03-07T12:21:40;21;20;
46885;PMS5003;32622;48.202;11.326;2024-03-07T12:23:42;21;20;
46885;PMS5003;32622;48.202;11.326;2024-03-07T12:25:45;21;20;
46885;PMS5003;32622;48.202;11.326;2024-03-07T12:27:47;21;20;
46885;PMS5003;32622;48.202;11.326;2024-03-07T12:30:00;20;20;
46885;PMS5003;32622;48.202;11.326;2024-03-07T12:32:02;20;20;
46885;PMS5003;32622;48.202;11.326;2024-03-07T12:34:05;20;20;
46885;PMS5003;32622;48.202;11.326;2024-03-07T12:36:08;19;19;
46885;PMS5003;32622;48.202;11.326;2024-03-07T12:38:11;19;19;
46885;PMS5003;32622;48.202;11.326;2024-03-07T12:40:15;19;19;
46885;PMS5003;32622;48.202;11.326;2024-03-07T12:42:17;18;18;
46885;PMS5003;32622;48.202;11.326;2024-03-07T12:44:19;18;18;
46885;PMS5003;32622;48.202;11.326;2024-03-07T12:46:22;18;18;
46885;PMS5003;32622;48.202;11.326;2024-03-07T12:48:24;18;18;
46885;PMS5003;32622;48.202;11.326;2024-03-07T12:50:26;18;18;
46885;PMS5003;32622;48.202;11.326;2024-03-07T12:52:29;18;18;
46885;PMS5003;32622;48.202;11.326;2024-03-07T12:54:31;17;17;
46885;PMS5003;32622;48.202;11.326;2024-03-07T12:56:33;18;18;
46885;PMS5003;32622;48.202;11.326;2024-03-07T12:58:35;18;18;
46885;PMS5003;32622;48.202;11.326;2024-03-07T13:00:37;17;17;
46885;PMS5003;32622;48.202;11.326;2024-03-07T13:02:40;17;17;
46885;PMS5003;32622;48.202;11.326;2024-03-07T13:04:42;17;17;
46885;PMS5003;32622;48.202;11.326;2024-03-07T13:06:44;17;17;
46885;PMS5003;32622;48.202;11.326;2024-03-07T13:08:46;17;17;
46885;PMS5003;32622;48.202;11.326;2024-03-07T13:10:48;17;17;
46885;PMS5003;32622;48.202;11.326;2024-03-07T13:12:50;17;17;
46885;PMS5003;32622;48.202;11.326;2024-03-07T13:14:53;17;17;
46885;PMS5003;32622;48.202;11.326;2024-03-07T13:16:55;17;17;
46885;PMS5003;32622;48.202;11.326;2024-03-07T13:18:57;17;17;
46885;PMS5003;32622;48.202;11.326;2024-03-07T13:20:59;17;17;